sensor_id;sensor_type;location;lat;lon;timestamp;pressure;altitude;pressure_sealevel;temperature;humidity
6835;BME280;3455;42.150;24.734;2023-03-31T00:01:00;66649.09;;;13.23;35.92
6835;BME280;3455;42.150;24.734;2023-03-31T00:03:28;66616.25;;;13.10;36.40
6835;BME280;3455;42.150;24.734;2023-03-31T00:05:59;66581.59;;;13.02;36.25
6835;BME280;3455;42.150;24.734;2023-03-31T00:08:27;66638.59;;;12.98;36.48
6835;BME280;3455;42.150;24.734;2023-03-31T00:10:57;66613.00;;;13.05;36.66
6835;BME280;3455;42.150;24.734;2023-03-31T00:13:24;66600.03;;;13.18;36.59
6835;BME280;3455;42.150;24.734;2023-03-31T00:15:57;66617.66;;;13.09;36.73
6835;BME280;3455;42.150;24.734;2023-03-31T00:18:23;66618.34;;;13.03;37.04
6835;BME280;3455;42.150;24.734;2023-03-31T00:20:51;66645.75;;;13.14;37.20
6835;BME280;3455;42.150;24.734;2023-03-31T00:23:18;66672.69;;;13.29;36.68
6835;BME280;3455;42.150;24.734;2023-03-31T00:25:53;66664.59;;;13.44;36.27
6835;BME280;3455;42.150;24.734;2023-03-31T00:28:20;66637.78;;;13.11;36.94
6835;BME280;3455;42.150;24.734;2023-03-31T00:30:46;66618.31;;;13.25;36.54
6835;BME280;3455;42.150;24.734;2023-03-31T00:33:15;66725.78;;;13.26;36.42
6835;BME280;3455;42.150;24.734;2023-03-31T00:35:41;66566.59;;;12.89;37.31
6835;BME280;3455;42.150;24.734;2023-03-31T00:38:10;66490.38;;;12.43;36.96
6835;BME280;3455;42.150;24.734;2023-03-31T00:40:43;66629.69;;;13.04;37.15
6835;BME280;3455;42.150;24.734;2023-03-31T00:43:26;66618.34;;;13.03;37.31
6835;BME280;3455;42.150;24.734;2023-03-31T00:45:57;66595.00;;;12.96;37.51
6835;BME280;3455;42.150;24.734;2023-03-31T00:48:28;66615.34;;;12.84;37.91
6835;BME280;3455;42.150;24.734;2023-03-31T00:50:56;66606.34;;;12.85;38.14
6835;BME280;3455;42.150;24.734;2023-03-31T00:53:28;66562.09;;;12.66;37.79
6835;BME280;3455;42.150;24.734;2023-03-31T00:56:01;66557.13;;;12.49;38.55
6835;BME280;3455;42.150;24.734;2023-03-31T00:58:31;66547.91;;;12.40;38.89
6835;BME280;3455;42.150;24.734;2023-03-31T01:01:00;66554.16;;;12.41;39.06
6835;BME280;3455;42.150;24.734;2023-03-31T01:03:30;66549.97;;;12.56;38.36
6835;BME280;3455;42.150;24.734;2023-03-31T01:06:00;66535.66;;;12.25;39.59
6835;BME280;3455;42.150;24.734;2023-03-31T01:08:30;66550.91;;;12.25;39.33
6835;BME280;3455;42.150;24.734;2023-03-31T01:10:59;66517.41;;;12.29;39.58
6835;BME280;3455;42.150;24.734;2023-03-31T01:13:29;66536.00;;;12.16;39.86
6835;BME280;3455;42.150;24.734;2023-03-31T01:15:56;66509.81;;;12.06;40.57
6835;BME280;3455;42.150;24.734;2023-03-31T01:18:23;66476.78;;;11.84;40.93
6835;BME280;3455;42.150;24.734;2023-03-31T01:21:17;66551.38;;;12.21;39.96
6835;BME280;3455;42.150;24.734;2023-03-31T01:26:54;66539.81;;;12.33;39.96
6835;BME280;3455;42.150;24.734;2023-03-31T01:33:05;66500.59;;;12.10;40.89
6835;BME280;3455;42.150;24.734;2023-03-31T01:36:11;66502.31;;;12.00;41.21
6835;BME280;3455;42.150;24.734;2023-03-31T01:38:59;66540.75;;;12.14;41.12
6835;BME280;3455;42.150;24.734;2023-03-31T01:41:43;66524.56;;;12.33;40.38
6835;BME280;3455;42.150;24.734;2023-03-31T01:44:17;66528.63;;;12.37;40.10
6835;BME280;3455;42.150;24.734;2023-03-31T01:46:52;66548.00;;;12.34;40.21
6835;BME280;3455;42.150;24.734;2023-03-31T01:49:24;66502.41;;;12.27;40.76
6835;BME280;3455;42.150;24.734;2023-03-31T01:51:58;66479.34;;;12.06;40.86
6835;BME280;3455;42.150;24.734;2023-03-31T01:54:32;66498.72;;;12.15;41.25
6835;BME280;3455;42.150;24.734;2023-03-31T01:57:11;66517.91;;;12.14;41.22
6835;BME280;3455;42.150;24.734;2023-03-31T01:59:47;66561.31;;;12.12;41.67
6835;BME280;3455;42.150;24.734;2023-03-31T02:02:18;66477.03;;;11.82;41.67
6835;BME280;3455;42.150;24.734;2023-03-31T02:04:48;66502.88;;;12.00;40.98
6835;BME280;3455;42.150;24.734;2023-03-31T02:07:19;66509.00;;;11.97;41.55
6835;BME280;3455;42.150;24.734;2023-03-31T02:09:49;66501.25;;;12.03;40.60
6835;BME280;3455;42.150;24.734;2023-03-31T02:12:21;66504.72;;;12.06;40.87
6835;BME280;3455;42.150;24.734;2023-03-31T02:14:51;66444.03;;;11.93;41.36
6835;BME280;3455;42.150;24.734;2023-03-31T02:17:22;66463.06;;;11.87;41.63
6835;BME280;3455;42.150;24.734;2023-03-31T02:19:56;66501.69;;;11.77;41.47
6835;BME280;3455;42.150;24.734;2023-03-31T02:22:24;66470.56;;;11.72;41.14
6835;BME280;3455;42.150;24.734;2023-03-31T02:24:53;66418.88;;;11.12;42.08
6835;BME280;3455;42.150;24.734;2023-03-31T02:27:24;66448.06;;;11.40;41.98
6835;BME280;3455;42.150;24.734;2023-03-31T02:29:53;66406.53;;;11.37;42.65
6835;BME280;3455;42.150;24.734;2023-03-31T02:32:22;66425.09;;;11.13;42.86
6835;BME280;3455;42.150;24.734;2023-03-31T02:34:50;66452.09;;;11.33;42.88
6835;BME280;3455;42.150;24.734;2023-03-31T02:37:17;66455.75;;;11.22;43.52
6835;BME280;3455;42.150;24.734;2023-03-31T02:39:46;66425.34;;;11.45;43.14
6835;BME280;3455;42.150;24.734;2023-03-31T02:42:13;66437.78;;;11.36;43.74
6835;BME280;3455;42.150;24.734;2023-03-31T02:44:42;66456.00;;;11.32;42.74
6835;BME280;3455;42.150;24.734;2023-03-31T02:47:11;66431.09;;;11.05;42.84
6835;BME280;3455;42.150;24.734;2023-03-31T02:49:39;66408.28;;;11.39;43.56
6835;BME280;3455;42.150;24.734;2023-03-31T02:52:26;66479.78;;;11.57;43.47
6835;BME280;3455;42.150;24.734;2023-03-31T02:55:19;66496.63;;;11.77;43.88
6835;BME280;3455;42.150;24.734;2023-03-31T03:01:06;66475.19;;;11.76;45.09
6835;BME280;3455;42.150;24.734;2023-03-31T03:03:41;66466.41;;;11.75;45.28
6835;BME280;3455;42.150;24.734;2023-03-31T03:06:21;66503.94;;;11.97;44.13
6835;BME280;3455;42.150;24.734;2023-03-31T03:09:04;66525.03;;;12.06;43.56
6835;BME280;3455;42.150;24.734;2023-03-31T03:11:38;66471.47;;;11.63;45.65
6835;BME280;3455;42.150;24.734;2023-03-31T03:14:17;66547.63;;;11.86;44.51
6835;BME280;3455;42.150;24.734;2023-03-31T03:16:49;66475.19;;;11.76;43.83
6835;BME280;3455;42.150;24.734;2023-03-31T03:19:20;66457.41;;;11.42;45.49
6835;BME280;3455;42.150;24.734;2023-03-31T03:21:47;66536.19;;;11.58;44.60
6835;BME280;3455;42.150;24.734;2023-03-31T03:24:15;66444.50;;;11.44;44.12
6835;BME280;3455;42.150;24.734;2023-03-31T03:26:42;66590.81;;;11.05;44.47
6835;BME280;3455;42.150;24.734;2023-03-31T03:29:09;66414.25;;;11.08;44.55
6835;BME280;3455;42.150;24.734;2023-03-31T03:31:37;66406.88;;;10.83;44.48
6835;BME280;3455;42.150;24.734;2023-03-31T03:34:05;66358.72;;;10.72;45.20
6835;BME280;3455;42.150;24.734;2023-03-31T03:36:34;66315.22;;;10.24;46.49
6835;BME280;3455;42.150;24.734;2023-03-31T03:39:00;66411.47;;;10.76;45.35
6835;BME280;3455;42.150;24.734;2023-03-31T03:41:28;66376.88;;;10.57;45.89
6835;BME280;3455;42.150;24.734;2023-03-31T03:43:56;66389.56;;;10.68;45.63
6835;BME280;3455;42.150;24.734;2023-03-31T03:46:23;66367.31;;;10.57;45.61
6835;BME280;3455;42.150;24.734;2023-03-31T03:48:49;66331.78;;;9.71;47.42
6835;BME280;3455;42.150;24.734;2023-03-31T03:51:18;66261.50;;;9.49;47.78
6835;BME280;3455;42.150;24.734;2023-03-31T03:53:44;66288.34;;;9.87;46.91
6835;BME280;3455;42.150;24.734;2023-03-31T03:56:11;66290.22;;;9.93;46.33
6835;BME280;3455;42.150;24.734;2023-03-31T03:58:38;66315.34;;;10.29;45.41
6835;BME280;3455;42.150;24.734;2023-03-31T04:01:05;66262.16;;;10.18;45.38
6835;BME280;3455;42.150;24.734;2023-03-31T04:03:31;66292.50;;;9.95;46.38
6835;BME280;3455;42.150;24.734;2023-03-31T04:05:58;66280.75;;;9.98;45.80
6835;BME280;3455;42.150;24.734;2023-03-31T04:08:26;66326.19;;;10.34;45.15
6835;BME280;3455;42.150;24.734;2023-03-31T04:10:53;66328.09;;;10.22;44.88
6835;BME280;3455;42.150;24.734;2023-03-31T04:13:20;66344.00;;;10.27;45.12
6835;BME280;3455;42.150;24.734;2023-03-31T04:15:47;66328.91;;;10.21;44.77
6835;BME280;3455;42.150;24.734;2023-03-31T04:18:14;66367.53;;;10.44;44.62
6835;BME280;3455;42.150;24.734;2023-03-31T04:20:47;66366.84;;;10.50;44.78
6835;BME280;3455;42.150;24.734;2023-03-31T04:23:19;66368.84;;;10.72;44.49
6835;BME280;3455;42.150;24.734;2023-03-31T04:25:50;66359.97;;;10.55;44.89
6835;BME280;3455;42.150;24.734;2023-03-31T04:28:16;66356.38;;;10.47;45.46
6835;BME280;3455;42.150;24.734;2023-03-31T04:30:44;66327.59;;;10.44;45.37
6835;BME280;3455;42.150;24.734;2023-03-31T04:33:11;66349.81;;;10.44;45.60
6835;BME280;3455;42.150;24.734;2023-03-31T04:35:40;66339.22;;;10.59;44.38
6835;BME280;3455;42.150;24.734;2023-03-31T04:38:15;66377.81;;;10.71;44.54
6835;BME280;3455;42.150;24.734;2023-03-31T04:40:44;66398.56;;;10.89;44.27
6835;BME280;3455;42.150;24.734;2023-03-31T04:43:13;66384.25;;;10.59;44.52
6835;BME280;3455;42.150;24.734;2023-03-31T04:45:40;66347.66;;;10.80;44.20
6835;BME280;3455;42.150;24.734;2023-03-31T04:48:07;66386.59;;;10.95;43.72
6835;BME280;3455;42.150;24.734;2023-03-31T04:50:34;66433.88;;;11.25;43.34
6835;BME280;3455;42.150;24.734;2023-03-31T04:53:01;66447.03;;;11.33;43.48
6835;BME280;3455;42.150;24.734;2023-03-31T04:55:28;66464.75;;;11.21;43.43
6835;BME280;3455;42.150;24.734;2023-03-31T04:57:54;66446.31;;;11.50;43.33
6835;BME280;3455;42.150;24.734;2023-03-31T05:00:23;66478.75;;;11.72;43.07
6835;BME280;3455;42.150;24.734;2023-03-31T05:02:51;66510.94;;;11.74;42.41
6835;BME280;3455;42.150;24.734;2023-03-31T05:05:17;66483.69;;;11.79;41.94
6835;BME280;3455;42.150;24.734;2023-03-31T05:07:44;66492.25;;;11.82;41.71
6835;BME280;3455;42.150;24.734;2023-03-31T05:10:11;66498.03;;;11.87;41.56
6835;BME280;3455;42.150;24.734;2023-03-31T05:12:38;66443.31;;;11.65;42.42
6835;BME280;3455;42.150;24.734;2023-03-31T05:15:06;66508.44;;;11.96;41.46
6835;BME280;3455;42.150;24.734;2023-03-31T05:17:35;66492.25;;;11.71;42.17
6835;BME280;3455;42.150;24.734;2023-03-31T05:20:03;66487.06;;;11.77;41.71
6835;BME280;3455;42.150;24.734;2023-03-31T05:22:33;66442.63;;;11.83;42.06
6835;BME280;3455;42.150;24.734;2023-03-31T05:25:00;66474.03;;;11.97;41.36
6835;BME280;3455;42.150;24.734;2023-03-31T05:27:28;66545.69;;;11.98;41.72
6835;BME280;3455;42.150;24.734;2023-03-31T05:29:55;66516.28;;;12.05;42.16
6835;BME280;3455;42.150;24.734;2023-03-31T05:32:22;66498.03;;;11.87;42.30
6835;BME280;3455;42.150;24.734;2023-03-31T05:34:51;66590.06;;;12.21;41.51
6835;BME280;3455;42.150;24.734;2023-03-31T05:37:21;66533.34;;;12.34;41.31
6835;BME280;3455;42.150;24.734;2023-03-31T05:39:48;66564.06;;;12.43;41.41
6835;BME280;3455;42.150;24.734;2023-03-31T05:42:15;66545.25;;;12.24;41.21
6835;BME280;3455;42.150;24.734;2023-03-31T05:44:41;66513.28;;;12.32;41.63
6835;BME280;3455;42.150;24.734;2023-03-31T05:47:08;66585.91;;;12.47;41.01
6835;BME280;3455;42.150;24.734;2023-03-31T05:49:35;66576.78;;;12.66;40.31
6835;BME280;3455;42.150;24.734;2023-03-31T05:52:04;66588.31;;;12.76;40.21
6835;BME280;3455;42.150;24.734;2023-03-31T05:54:31;66621.72;;;12.79;40.17
6835;BME280;3455;42.150;24.734;2023-03-31T05:56:58;66611.91;;;12.81;39.43
6835;BME280;3455;42.150;24.734;2023-03-31T05:59:25;66622.28;;;12.91;39.42
6835;BME280;3455;42.150;24.734;2023-03-31T06:01:52;66597.00;;;12.61;40.56
6835;BME280;3455;42.150;24.734;2023-03-31T06:04:18;66603.69;;;12.81;39.69
6835;BME280;3455;42.150;24.734;2023-03-31T06:06:45;66605.28;;;13.00;39.45
6835;BME280;3455;42.150;24.734;2023-03-31T06:09:15;66624.13;;;13.08;39.40
6835;BME280;3455;42.150;24.734;2023-03-31T06:11:42;66599.06;;;12.65;40.19
6835;BME280;3455;42.150;24.734;2023-03-31T06:14:10;66600.53;;;12.92;40.18
6835;BME280;3455;42.150;24.734;2023-03-31T06:16:37;66616.47;;;13.19;39.30
6835;BME280;3455;42.150;24.734;2023-03-31T06:19:04;66643.75;;;13.25;39.19
6835;BME280;3455;42.150;24.734;2023-03-31T06:21:31;66671.06;;;13.43;38.70
6835;BME280;3455;42.150;24.734;2023-03-31T06:23:58;66674.97;;;13.53;38.38
6835;BME280;3455;42.150;24.734;2023-03-31T06:26:26;66677.16;;;13.73;38.13
6835;BME280;3455;42.150;24.734;2023-03-31T06:28:53;66677.03;;;13.69;38.55
6835;BME280;3455;42.150;24.734;2023-03-31T06:31:22;66708.97;;;13.79;38.38
6835;BME280;3455;42.150;24.734;2023-03-31T06:33:49;66692.78;;;13.76;38.24
6835;BME280;3455;42.150;24.734;2023-03-31T06:36:18;66690.97;;;14.08;37.79
6835;BME280;3455;42.150;24.734;2023-03-31T06:38:45;66748.25;;;14.25;37.64
6835;BME280;3455;42.150;24.734;2023-03-31T06:41:13;66794.91;;;14.46;37.06
6835;BME280;3455;42.150;24.734;2023-03-31T06:43:42;66735.25;;;14.38;37.56
6835;BME280;3455;42.150;24.734;2023-03-31T06:46:09;66801.06;;;14.43;37.60
6835;BME280;3455;42.150;24.734;2023-03-31T06:48:36;66767.69;;;14.45;38.57
6835;BME280;3455;42.150;24.734;2023-03-31T06:51:05;66828.34;;;14.94;37.44
6835;BME280;3455;42.150;24.734;2023-03-31T06:53:32;66883.97;;;15.48;36.45
6835;BME280;3455;42.150;24.734;2023-03-31T06:55:59;66871.56;;;15.50;36.76
6835;BME280;3455;42.150;24.734;2023-03-31T06:58:26;66931.91;;;15.97;36.69
6835;BME280;3455;42.150;24.734;2023-03-31T07:00:54;66931.63;;;15.72;36.19
6835;BME280;3455;42.150;24.734;2023-03-31T07:03:21;67032.44;;;16.61;33.99
6835;BME280;3455;42.150;24.734;2023-03-31T07:05:50;66943.53;;;16.23;34.45
6835;BME280;3455;42.150;24.734;2023-03-31T07:08:17;67094.31;;;17.34;33.52
6835;BME280;3455;42.150;24.734;2023-03-31T07:10:45;66952.91;;;16.36;34.17
6835;BME280;3455;42.150;24.734;2023-03-31T07:13:13;66991.56;;;16.50;33.51
6835;BME280;3455;42.150;24.734;2023-03-31T07:15:40;67016.56;;;16.88;33.24
6835;BME280;3455;42.150;24.734;2023-03-31T07:18:08;67159.69;;;18.42;31.69
6835;BME280;3455;42.150;24.734;2023-03-31T07:20:37;67457.00;;;20.41;28.82
6835;BME280;3455;42.150;24.734;2023-03-31T07:23:04;67422.59;;;20.38;28.40
6835;BME280;3455;42.150;24.734;2023-03-31T07:25:32;67523.41;;;21.04;27.90
6835;BME280;3455;42.150;24.734;2023-03-31T07:27:59;67859.97;;;23.55;24.66
6835;BME280;3455;42.150;24.734;2023-03-31T07:30:30;68053.84;;;25.25;22.13
6835;BME280;3455;42.150;24.734;2023-03-31T07:32:57;67711.59;;;22.79;24.45
6835;BME280;3455;42.150;24.734;2023-03-31T07:35:25;67652.28;;;22.31;25.79
6835;BME280;3455;42.150;24.734;2023-03-31T07:37:52;67862.78;;;23.85;23.48
6835;BME280;3455;42.150;24.734;2023-03-31T07:40:21;67949.94;;;24.75;23.35
6835;BME280;3455;42.150;24.734;2023-03-31T07:42:48;67998.84;;;25.09;22.29
6835;BME280;3455;42.150;24.734;2023-03-31T07:45:17;68069.69;;;25.44;21.74
6835;BME280;3455;42.150;24.734;2023-03-31T07:47:44;68319.03;;;27.31;19.56
6835;BME280;3455;42.150;24.734;2023-03-31T07:50:12;68377.63;;;27.41;20.30
6835;BME280;3455;42.150;24.734;2023-03-31T07:52:41;68162.97;;;26.49;21.06
6835;BME280;3455;42.150;24.734;2023-03-31T07:55:08;68316.13;;;27.28;20.95
6835;BME280;3455;42.150;24.734;2023-03-31T07:57:36;68176.03;;;26.33;21.72
6835;BME280;3455;42.150;24.734;2023-03-31T08:00:04;68189.69;;;26.38;21.31
6835;BME280;3455;42.150;24.734;2023-03-31T08:02:33;68440.44;;;27.44;19.35
6835;BME280;3455;42.150;24.734;2023-03-31T08:05:00;68233.53;;;26.56;20.46
6835;BME280;3455;42.150;24.734;2023-03-31T08:07:27;68373.44;;;27.94;19.47
6835;BME280;3455;42.150;24.734;2023-03-31T08:09:56;68423.31;;;28.22;19.42
6835;BME280;3455;42.150;24.734;2023-03-31T08:12:23;68569.94;;;29.09;18.96
6835;BME280;3455;42.150;24.734;2023-03-31T08:14:50;68443.63;;;28.26;19.30
6835;BME280;3455;42.150;24.734;2023-03-31T08:17:17;68510.75;;;28.42;18.95
6835;BME280;3455;42.150;24.734;2023-03-31T08:19:44;68419.19;;;28.19;19.50
6835;BME280;3455;42.150;24.734;2023-03-31T08:22:10;68653.88;;;29.58;18.40
6835;BME280;3455;42.150;24.734;2023-03-31T08:24:37;68825.16;;;30.59;17.79
6835;BME280;3455;42.150;24.734;2023-03-31T08:27:05;68897.47;;;31.18;17.15
6835;BME280;3455;42.150;24.734;2023-03-31T08:29:32;69028.28;;;32.16;16.48
6835;BME280;3455;42.150;24.734;2023-03-31T08:31:59;69062.41;;;31.95;17.44
6835;BME280;3455;42.150;24.734;2023-03-31T08:34:26;68810.50;;;30.51;17.67
6835;BME280;3455;42.150;24.734;2023-03-31T08:36:53;68385.81;;;27.89;19.82
6835;BME280;3455;42.150;24.734;2023-03-31T08:39:21;68630.28;;;29.53;19.10
6835;BME280;3455;42.150;24.734;2023-03-31T08:41:53;68702.53;;;30.16;18.68
6835;BME280;3455;42.150;24.734;2023-03-31T08:44:30;68808.22;;;30.79;18.12
6835;BME280;3455;42.150;24.734;2023-03-31T08:47:00;68786.69;;;30.53;18.84
6835;BME280;3455;42.150;24.734;2023-03-31T08:49:38;69085.31;;;32.31;17.79
6835;BME280;3455;42.150;24.734;2023-03-31T08:52:11;69185.56;;;32.68;17.72
6835;BME280;3455;42.150;24.734;2023-03-31T08:54:42;69237.66;;;33.07;17.20
6835;BME280;3455;42.150;24.734;2023-03-31T08:57:14;69156.50;;;32.80;17.32
6835;BME280;3455;42.150;24.734;2023-03-31T08:59:45;69272.81;;;33.40;16.82
6835;BME280;3455;42.150;24.734;2023-03-31T09:02:20;69450.03;;;34.39;16.56
6835;BME280;3455;42.150;24.734;2023-03-31T09:05:17;69334.44;;;33.61;17.50
6835;BME280;3455;42.150;24.734;2023-03-31T09:07:55;69093.28;;;32.15;18.37
6835;BME280;3455;42.150;24.734;2023-03-31T09:10:35;69184.03;;;32.90;18.27
6835;BME280;3455;42.150;24.734;2023-03-31T09:13:16;69247.31;;;33.08;17.63
6835;BME280;3455;42.150;24.734;2023-03-31T09:15:52;69561.63;;;34.26;17.85
6835;BME280;3455;42.150;24.734;2023-03-31T09:18:27;69237.38;;;33.29;17.85
6835;BME280;3455;42.150;24.734;2023-03-31T09:21:00;69385.16;;;33.96;17.21
6835;BME280;3455;42.150;24.734;2023-03-31T09:23:31;69215.22;;;33.08;18.11
6835;BME280;3455;42.150;24.734;2023-03-31T09:26:02;69314.78;;;33.76;17.47
6835;BME280;3455;42.150;24.734;2023-03-31T09:28:34;69837.84;;;36.15;15.87
6835;BME280;3455;42.150;24.734;2023-03-31T09:31:10;69676.41;;;35.57;15.93
6835;BME280;3455;42.150;24.734;2023-03-31T09:33:42;69092.09;;;32.39;18.13
6835;BME280;3455;42.150;24.734;2023-03-31T09:36:13;68824.03;;;30.88;19.33
6835;BME280;3455;42.150;24.734;2023-03-31T09:38:42;68950.44;;;31.64;19.05
6835;BME280;3455;42.150;24.734;2023-03-31T09:41:10;69259.78;;;32.98;17.69
6835;BME280;3455;42.150;24.734;2023-03-31T09:43:39;69145.28;;;32.70;18.08
6835;BME280;3455;42.150;24.734;2023-03-31T09:46:15;68962.94;;;31.38;18.94
6835;BME280;3455;42.150;24.734;2023-03-31T09:48:51;69057.28;;;32.30;18.24
6835;BME280;3455;42.150;24.734;2023-03-31T09:51:23;69412.88;;;34.16;17.74
6835;BME280;3455;42.150;24.734;2023-03-31T09:53:54;69264.47;;;33.23;17.80
6835;BME280;3455;42.150;24.734;2023-03-31T09:56:33;69292.84;;;33.27;17.50
6835;BME280;3455;42.150;24.734;2023-03-31T09:59:02;69528.91;;;34.75;16.70
6835;BME280;3455;42.150;24.734;2023-03-31T10:01:30;69708.13;;;35.62;16.46
6835;BME280;3455;42.150;24.734;2023-03-31T10:04:00;69744.69;;;36.00;15.33
6835;BME280;3455;42.150;24.734;2023-03-31T10:06:30;69524.97;;;34.65;16.58
6835;BME280;3455;42.150;24.734;2023-03-31T10:08:58;69883.91;;;36.77;15.04
6835;BME280;3455;42.150;24.734;2023-03-31T10:11:27;69679.84;;;35.51;15.36
6835;BME280;3455;42.150;24.734;2023-03-31T10:13:59;69776.13;;;35.61;16.20
6835;BME280;3455;42.150;24.734;2023-03-31T10:16:31;69557.38;;;35.04;16.95
6835;BME280;3455;42.150;24.734;2023-03-31T10:19:17;69497.41;;;34.84;16.41
6835;BME280;3455;42.150;24.734;2023-03-31T10:21:47;69490.09;;;34.85;16.08
6835;BME280;3455;42.150;24.734;2023-03-31T10:24:17;69571.19;;;34.84;16.42
6835;BME280;3455;42.150;24.734;2023-03-31T10:26:47;69499.97;;;34.55;17.11
6835;BME280;3455;42.150;24.734;2023-03-31T10:29:19;69419.09;;;33.98;17.03
6835;BME280;3455;42.150;24.734;2023-03-31T10:31:51;69563.31;;;35.09;16.13
6835;BME280;3455;42.150;24.734;2023-03-31T10:34:18;69925.75;;;36.91;15.21
6835;BME280;3455;42.150;24.734;2023-03-31T10:36:48;70253.00;;;38.61;15.14
6835;BME280;3455;42.150;24.734;2023-03-31T10:39:17;70224.91;;;38.53;14.46
6835;BME280;3455;42.150;24.734;2023-03-31T10:41:49;70308.63;;;39.02;13.53
6835;BME280;3455;42.150;24.734;2023-03-31T10:44:30;69933.03;;;37.11;15.01
6835;BME280;3455;42.150;24.734;2023-03-31T10:47:16;70045.34;;;37.57;14.84
6835;BME280;3455;42.150;24.734;2023-03-31T10:49:47;69933.66;;;37.11;15.00
6835;BME280;3455;42.150;24.734;2023-03-31T10:52:17;70139.50;;;38.07;15.16
6835;BME280;3455;42.150;24.734;2023-03-31T10:54:46;70295.94;;;38.78;13.86
6835;BME280;3455;42.150;24.734;2023-03-31T10:57:14;70214.59;;;38.30;14.10
6835;BME280;3455;42.150;24.734;2023-03-31T11:03:15;69795.91;;;36.38;15.22
6835;BME280;3455;42.150;24.734;2023-03-31T11:05:49;69865.84;;;35.61;15.77
6835;BME280;3455;42.150;24.734;2023-03-31T11:08:28;69546.72;;;34.95;16.35
6835;BME280;3455;42.150;24.734;2023-03-31T11:11:10;69466.44;;;34.39;17.01
6835;BME280;3455;42.150;24.734;2023-03-31T11:13:46;69122.88;;;32.50;17.88
6835;BME280;3455;42.150;24.734;2023-03-31T11:16:21;69062.88;;;32.07;18.27
6835;BME280;3455;42.150;24.734;2023-03-31T11:19:03;68933.44;;;31.54;19.49
6835;BME280;3455;42.150;24.734;2023-03-31T11:21:41;68888.84;;;30.83;19.53
6835;BME280;3455;42.150;24.734;2023-03-31T11:24:20;68794.91;;;30.60;20.33
6835;BME280;3455;42.150;24.734;2023-03-31T11:27:00;69011.22;;;31.80;18.58
6835;BME280;3455;42.150;24.734;2023-03-31T11:29:34;69250.88;;;33.11;17.24
6835;BME280;3455;42.150;24.734;2023-03-31T11:32:29;69762.66;;;36.09;15.29
6835;BME280;3455;42.150;24.734;2023-03-31T11:35:13;70240.69;;;38.44;14.99
6835;BME280;3455;42.150;24.734;2023-03-31T11:37:54;70035.06;;;37.35;14.30
6835;BME280;3455;42.150;24.734;2023-03-31T11:40:42;69705.44;;;35.82;15.92
6835;BME280;3455;42.150;24.734;2023-03-31T11:43:18;69641.78;;;35.29;15.72
6835;BME280;3455;42.150;24.734;2023-03-31T11:45:51;69335.75;;;33.71;16.90
6835;BME280;3455;42.150;24.734;2023-03-31T11:48:26;69293.69;;;33.51;17.24
6835;BME280;3455;42.150;24.734;2023-03-31T11:50:56;69224.44;;;33.23;17.57
6835;BME280;3455;42.150;24.734;2023-03-31T11:53:27;69262.00;;;33.12;17.56
6835;BME280;3455;42.150;24.734;2023-03-31T11:55:57;69294.56;;;33.04;17.54
6835;BME280;3455;42.150;24.734;2023-03-31T11:58:31;68934.38;;;31.36;19.37
6835;BME280;3455;42.150;24.734;2023-03-31T12:01:06;69247.50;;;33.22;17.80
6835;BME280;3455;42.150;24.734;2023-03-31T12:03:41;69569.06;;;35.01;16.81
6835;BME280;3455;42.150;24.734;2023-03-31T12:06:14;69907.97;;;36.75;15.44
6835;BME280;3455;42.150;24.734;2023-03-31T12:08:50;69970.69;;;37.11;15.26
6835;BME280;3455;42.150;24.734;2023-03-31T12:11:24;69973.72;;;37.18;14.59
6835;BME280;3455;42.150;24.734;2023-03-31T12:13:57;70015.44;;;37.18;14.88
6835;BME280;3455;42.150;24.734;2023-03-31T12:16:32;70178.84;;;38.20;13.64
6835;BME280;3455;42.150;24.734;2023-03-31T12:19:05;70142.97;;;38.01;14.03
6835;BME280;3455;42.150;24.734;2023-03-31T12:21:37;70090.31;;;37.78;14.54
6835;BME280;3455;42.150;24.734;2023-03-31T12:24:10;69990.78;;;37.19;14.27
6835;BME280;3455;42.150;24.734;2023-03-31T12:26:44;69645.19;;;35.44;14.92
6835;BME280;3455;42.150;24.734;2023-03-31T12:29:23;69441.50;;;34.59;16.00
6835;BME280;3455;42.150;24.734;2023-03-31T12:31:53;69266.94;;;33.34;17.09
6835;BME280;3455;42.150;24.734;2023-03-31T12:34:22;69057.47;;;31.98;18.07
6835;BME280;3455;42.150;24.734;2023-03-31T12:37:13;69236.56;;;33.35;17.77
6835;BME280;3455;42.150;24.734;2023-03-31T12:39:53;69426.19;;;34.25;16.82
6835;BME280;3455;42.150;24.734;2023-03-31T12:42:47;69125.75;;;32.48;17.19
6835;BME280;3455;42.150;24.734;2023-03-31T12:45:24;69276.81;;;33.29;16.86
6835;BME280;3455;42.150;24.734;2023-03-31T12:48:03;69359.28;;;33.83;15.79
6835;BME280;3455;42.150;24.734;2023-03-31T12:50:43;69575.56;;;35.06;15.13
6835;BME280;3455;42.150;24.734;2023-03-31T12:53:24;69844.28;;;36.57;14.11
6835;BME280;3455;42.150;24.734;2023-03-31T12:55:55;69684.94;;;35.83;14.92
6835;BME280;3455;42.150;24.734;2023-03-31T12:58:43;69696.03;;;35.79;14.79
6835;BME280;3455;42.150;24.734;2023-03-31T13:01:13;69569.16;;;35.10;15.33
6835;BME280;3455;42.150;24.734;2023-03-31T13:03:51;69513.09;;;34.75;15.53
6835;BME280;3455;42.150;24.734;2023-03-31T13:06:45;69356.47;;;33.94;16.08
6835;BME280;3455;42.150;24.734;2023-03-31T13:09:45;69104.22;;;32.52;16.85
6835;BME280;3455;42.150;24.734;2023-03-31T13:12:16;69173.75;;;32.83;17.07
6835;BME280;3455;42.150;24.734;2023-03-31T13:14:45;68974.41;;;31.71;17.36
6835;BME280;3455;42.150;24.734;2023-03-31T13:17:24;68834.59;;;30.72;18.00
6835;BME280;3455;42.150;24.734;2023-03-31T13:19:52;68638.97;;;29.51;18.99
6835;BME280;3455;42.150;24.734;2023-03-31T13:22:31;68626.28;;;29.59;19.24
6835;BME280;3455;42.150;24.734;2023-03-31T13:25:33;68594.09;;;29.35;19.58
6835;BME280;3455;42.150;24.734;2023-03-31T13:30:56;68667.19;;;29.76;19.53
6835;BME280;3455;42.150;24.734;2023-03-31T13:33:26;68695.13;;;29.82;19.97
6835;BME280;3455;42.150;24.734;2023-03-31T13:36:04;68571.78;;;29.16;20.14
6835;BME280;3455;42.150;24.734;2023-03-31T13:38:44;68505.78;;;28.81;20.50
6835;BME280;3455;42.150;24.734;2023-03-31T13:41:35;68629.00;;;29.43;19.73
6835;BME280;3455;42.150;24.734;2023-03-31T13:44:35;68492.78;;;28.60;20.54
6835;BME280;3455;42.150;24.734;2023-03-31T13:47:44;68447.16;;;28.29;21.19
6835;BME280;3455;42.150;24.734;2023-03-31T13:50:34;68423.84;;;28.18;21.19